createdAt,value
2019-05-22T00:01:02.973Z,100490
2019-05-22T00:03:33.542Z,100488
2019-05-22T00:06:02.375Z,100487
2019-05-22T00:08:31.229Z,100494
2019-05-22T00:11:00.064Z,100497
2019-05-22T00:13:30.651Z,100500
2019-05-22T00:15:59.479Z,100503
2019-05-22T00:18:28.344Z,100509
2019-05-22T00:20:57.187Z,100502
2019-05-22T00:23:26.030Z,100501
2019-05-22T00:25:54.873Z,100509
2019-05-22T00:28:23.690Z,100506
2019-05-22T00:30:52.533Z,100506
2019-05-22T00:33:22.114Z,100513
2019-05-22T00:35:51.541Z,100514
2019-05-22T00:38:20.384Z,100516
2019-05-22T00:40:50.050Z,100519
2019-05-22T00:43:18.878Z,100519
2019-05-22T00:45:47.750Z,100514
2019-05-22T00:48:16.548Z,100510
2019-05-22T00:50:45.518Z,100514
2019-05-22T00:53:20.498Z,100513
2019-05-22T00:55:49.307Z,100516
2019-05-22T00:58:18.163Z,100524
2019-05-22T01:00:47.072Z,100520
2019-05-22T01:03:15.904Z,100557
2019-05-22T01:05:44.738Z,100523
2019-05-22T01:08:13.572Z,100517
2019-05-22T01:10:42.400Z,100524
2019-05-22T01:13:11.336Z,100525
2019-05-22T01:15:40.100Z,100519
2019-05-22T01:18:08.964Z,100527
2019-05-22T01:20:37.766Z,100530
2019-05-22T01:23:06.616Z,100525
2019-05-22T01:25:35.455Z,100521
2019-05-22T01:28:04.290Z,100526
2019-05-22T01:30:35.011Z,100524
2019-05-22T01:33:04.701Z,100534
2019-05-22T01:35:34.397Z,100527
2019-05-22T01:38:03.250Z,100533
2019-05-22T01:40:34.882Z,100534
2019-05-22T01:43:03.713Z,100533
2019-05-22T01:45:32.551Z,100542
2019-05-22T01:48:02.382Z,100539
2019-05-22T01:50:38.558Z,100536
2019-05-22T01:53:07.388Z,100534
2019-05-22T01:55:36.220Z,100538
2019-05-22T01:58:05.083Z,100533
2019-05-22T02:00:33.901Z,100530
2019-05-22T02:03:02.737Z,100530
2019-05-22T02:05:31.615Z,100527
2019-05-22T02:08:00.443Z,100530
2019-05-22T02:10:34.629Z,100530
2019-05-22T02:13:03.509Z,100528
2019-05-22T02:15:32.330Z,100529
2019-05-22T02:18:01.921Z,100526
2019-05-22T02:20:30.771Z,100523
2019-05-22T02:22:59.631Z,100527
2019-05-22T02:25:29.198Z,100522
2019-05-22T02:27:58.056Z,100526
2019-05-22T02:30:26.927Z,100523
2019-05-22T02:32:55.870Z,100517
2019-05-22T02:35:24.596Z,100518
2019-05-22T02:37:53.450Z,100513
2019-05-22T02:40:23.179Z,100524
2019-05-22T02:42:52.031Z,100530
2019-05-22T02:45:20.876Z,100528
2019-05-22T02:47:49.723Z,100531
2019-05-22T02:50:22.725Z,100530
2019-05-22T02:52:51.583Z,100543
2019-05-22T02:55:20.450Z,100541
2019-05-22T02:57:50.006Z,100542
2019-05-22T03:00:18.846Z,100543
2019-05-22T03:02:48.429Z,100540
2019-05-22T03:05:17.294Z,100544
2019-05-22T03:07:46.142Z,100537
2019-05-22T03:10:14.994Z,100540
2019-05-22T03:12:43.825Z,100541
2019-05-22T03:15:12.709Z,100539
2019-05-22T03:17:41.523Z,100540
2019-05-22T03:20:11.403Z,100546
2019-05-22T03:25:24.357Z,100543
2019-05-22T03:27:53.191Z,100552
2019-05-22T03:30:24.883Z,100549
2019-05-22T03:32:54.151Z,100545
2019-05-22T03:35:23.711Z,100549
2019-05-22T03:37:52.533Z,100548
2019-05-22T03:40:21.385Z,100546
2019-05-22T03:42:50.229Z,100559
2019-05-22T03:45:19.123Z,100555
2019-05-22T03:47:47.965Z,100557
2019-05-22T03:50:16.805Z,100555
2019-05-22T03:52:45.645Z,100551
2019-05-22T03:55:14.585Z,100549
2019-05-22T03:57:43.381Z,100549
2019-05-22T04:00:12.268Z,100554
2019-05-22T04:02:41.076Z,100559
2019-05-22T04:05:09.931Z,100558
2019-05-22T04:07:39.657Z,100563
2019-05-22T04:10:08.505Z,100561
2019-05-22T04:12:37.336Z,100563
2019-05-22T04:15:06.427Z,100568
2019-05-22T04:17:35.045Z,100575
2019-05-22T04:20:03.879Z,100572
2019-05-22T04:22:32.727Z,100583
2019-05-22T04:25:01.553Z,100577
2019-05-22T04:27:30.403Z,100588
2019-05-22T04:29:59.229Z,100589
2019-05-22T04:32:30.567Z,100587
2019-05-22T04:35:00.150Z,100593
2019-05-22T04:37:28.989Z,100587
2019-05-22T04:39:58.788Z,100594
2019-05-22T04:42:27.637Z,100589
2019-05-22T04:45:09.270Z,100599
2019-05-22T04:47:38.068Z,100602
2019-05-22T04:50:08.272Z,100597
2019-05-22T04:52:36.668Z,100591
2019-05-22T04:55:07.268Z,100593
2019-05-22T04:57:36.100Z,100603
2019-05-22T05:00:04.943Z,100595
2019-05-22T05:02:33.796Z,100611
2019-05-22T05:05:02.633Z,100611
2019-05-22T05:07:31.487Z,100612
2019-05-22T05:10:00.333Z,100610
2019-05-22T05:12:29.175Z,100604
2019-05-22T05:14:58.008Z,100610
2019-05-22T05:17:26.841Z,100606
2019-05-22T05:19:55.680Z,100607
2019-05-22T05:25:05.038Z,100614
2019-05-22T05:27:33.929Z,100620
2019-05-22T05:30:02.813Z,100622
2019-05-22T05:32:31.599Z,100621
2019-05-22T05:35:00.441Z,100625
2019-05-22T05:37:29.271Z,100628
2019-05-22T05:42:43.634Z,100632
2019-05-22T05:45:13.657Z,100626
2019-05-22T05:47:41.326Z,100635
2019-05-22T05:50:10.187Z,100636
2019-05-22T05:52:39.197Z,100638
2019-05-22T05:55:08.001Z,100636
2019-05-22T06:00:21.494Z,100638
2019-05-22T06:02:56.618Z,100646
2019-05-22T06:05:19.237Z,100646
2019-05-22T06:07:48.779Z,100648
2019-05-22T06:13:02.968Z,100658
2019-05-22T06:15:46.414Z,100655
2019-05-22T06:21:03.323Z,100658
2019-05-22T06:26:03.488Z,100668
2019-05-22T06:28:33.060Z,100667
2019-05-22T06:31:01.885Z,100672
2019-05-22T06:33:31.509Z,100670
2019-05-22T06:36:02.031Z,100677
2019-05-22T06:41:17.700Z,100682
2019-05-22T06:46:32.215Z,100685
2019-05-22T06:49:01.763Z,100689
2019-05-22T06:51:30.637Z,100696
2019-05-22T06:53:59.447Z,100688
2019-05-22T06:56:28.324Z,100705
2019-05-22T06:58:57.138Z,100693
2019-05-22T07:01:25.959Z,100692
2019-05-22T07:03:54.827Z,100696
2019-05-22T07:06:24.426Z,100696
2019-05-22T07:08:53.264Z,100699
2019-05-22T07:11:22.363Z,100697
2019-05-22T07:13:52.621Z,100704
2019-05-22T07:16:21.484Z,100688
2019-05-22T07:18:50.314Z,100704
2019-05-22T07:21:32.101Z,100700
2019-05-22T07:23:48.726Z,100714
2019-05-22T07:26:17.584Z,100706
2019-05-22T07:28:46.467Z,100705
2019-05-22T07:31:15.328Z,100711
2019-05-22T07:33:44.732Z,100711
2019-05-22T07:36:16.764Z,100709
2019-05-22T07:38:42.397Z,100708
2019-05-22T07:41:11.271Z,100713
2019-05-22T07:43:41.391Z,100713
2019-05-22T07:46:08.939Z,100706
2019-05-22T07:48:37.800Z,100714
2019-05-22T07:51:06.639Z,100714
2019-05-22T07:53:35.537Z,100717
2019-05-22T07:56:05.449Z,100718
2019-05-22T07:58:33.922Z,100724
2019-05-22T08:01:02.764Z,100722
2019-05-22T08:03:31.812Z,100727
2019-05-22T08:06:00.510Z,100726
2019-05-22T08:08:29.358Z,100723
2019-05-22T08:10:58.264Z,100723
2019-05-22T08:13:27.066Z,100729
2019-05-22T08:15:55.899Z,100730
2019-05-22T08:18:24.727Z,100730
2019-05-22T08:20:53.570Z,100728
2019-05-22T08:23:22.431Z,100735
2019-05-22T08:25:51.271Z,100734
2019-05-22T08:28:20.882Z,100731
2019-05-22T08:30:49.739Z,100737
2019-05-22T08:33:18.585Z,100741
2019-05-22T08:35:47.430Z,100738
2019-05-22T08:38:16.307Z,100740
2019-05-22T08:40:45.145Z,100737
2019-05-22T08:43:13.976Z,100737
2019-05-22T08:45:42.827Z,100749
2019-05-22T08:48:11.660Z,100742
2019-05-22T08:50:40.504Z,100744
2019-05-22T08:53:09.343Z,100740
2019-05-22T08:55:38.176Z,100747
2019-05-22T08:58:07.015Z,100740
2019-05-22T09:00:35.848Z,100752
2019-05-22T09:03:04.731Z,100756
2019-05-22T09:05:34.344Z,100753
2019-05-22T09:08:03.131Z,100757
2019-05-22T09:10:31.982Z,100745
2019-05-22T09:13:00.930Z,100752
2019-05-22T09:15:29.677Z,100748
2019-05-22T09:17:58.516Z,100745
2019-05-22T09:20:27.345Z,100749
2019-05-22T09:22:56.201Z,100754
2019-05-22T09:25:25.794Z,100749
2019-05-22T09:27:54.627Z,100761
2019-05-22T09:30:23.482Z,100755
2019-05-22T09:32:52.371Z,100771
2019-05-22T09:35:21.187Z,100768
2019-05-22T09:37:50.044Z,100773
2019-05-22T09:40:19.654Z,100770
2019-05-22T09:42:48.532Z,100772
2019-05-22T09:45:17.375Z,100767
2019-05-22T09:47:46.221Z,100773
2019-05-22T09:50:15.800Z,100766
2019-05-22T09:52:56.915Z,100786
2019-05-22T09:55:13.493Z,100772
2019-05-22T09:57:42.352Z,100776
2019-05-22T10:00:11.187Z,100777
2019-05-22T10:02:40.031Z,100772
2019-05-22T10:05:08.871Z,100778
2019-05-22T10:07:37.728Z,100780
2019-05-22T10:10:06.558Z,100779
2019-05-22T10:12:35.419Z,100779
2019-05-22T10:15:05.010Z,100784
2019-05-22T10:17:33.159Z,100779
2019-05-22T10:20:02.701Z,100777
2019-05-22T10:22:31.542Z,100780
2019-05-22T10:25:14.847Z,100783
2019-05-22T10:27:29.985Z,100781
2019-05-22T10:29:58.898Z,100796
2019-05-22T10:32:31.852Z,100785
2019-05-22T10:34:57.847Z,100791
2019-05-22T10:37:25.459Z,100791
2019-05-22T10:39:54.317Z,100784
2019-05-22T10:42:23.172Z,100792
2019-05-22T10:44:52.024Z,100793
2019-05-22T10:47:21.481Z,100797
2019-05-22T10:49:50.317Z,100794
2019-05-22T10:52:19.157Z,100797
2019-05-22T10:54:47.998Z,100788
2019-05-22T10:57:16.861Z,100794
2019-05-22T10:59:45.736Z,100798
2019-05-22T11:02:14.581Z,100799
2019-05-22T11:04:43.451Z,100795
2019-05-22T11:07:13.847Z,100794
2019-05-22T11:09:42.712Z,100797
2019-05-22T11:12:11.545Z,100797
2019-05-22T11:14:40.403Z,100792
2019-05-22T11:17:09.235Z,100797
2019-05-22T11:19:38.824Z,100802
2019-05-22T11:22:07.672Z,100805
2019-05-22T11:24:36.534Z,100808
2019-05-22T11:27:05.651Z,100808
2019-05-22T11:29:34.229Z,100803
2019-05-22T11:32:03.084Z,100808
2019-05-22T11:34:32.034Z,100802
2019-05-22T11:37:00.805Z,100829
2019-05-22T11:39:38.607Z,100813
2019-05-22T11:41:58.495Z,100816
2019-05-22T11:44:27.331Z,100809
2019-05-22T11:46:56.173Z,100805
2019-05-22T11:49:25.000Z,100809
2019-05-22T11:51:53.908Z,100803
2019-05-22T11:54:22.715Z,100813
2019-05-22T11:56:51.609Z,100807
2019-05-22T11:59:20.403Z,100799
2019-05-22T12:01:49.291Z,100800
2019-05-22T12:04:18.113Z,100807
2019-05-22T12:06:46.959Z,100797
2019-05-22T12:09:15.793Z,100807
2019-05-22T12:11:44.625Z,100799
2019-05-22T12:14:13.498Z,100799
2019-05-22T12:16:42.303Z,100800
2019-05-22T12:19:11.923Z,100800
2019-05-22T12:21:40.774Z,100799
2019-05-22T12:24:25.918Z,100799
2019-05-22T12:26:38.466Z,100796
2019-05-22T12:29:07.341Z,100799
2019-05-22T12:31:36.150Z,100801
2019-05-22T12:34:05.780Z,100802
2019-05-22T12:36:34.657Z,100798
2019-05-22T12:39:03.483Z,100792
2019-05-22T12:41:32.337Z,100790
2019-05-22T12:44:01.927Z,100798
2019-05-22T12:46:30.767Z,100798
2019-05-22T12:48:59.630Z,100788
2019-05-22T12:51:28.500Z,100796
2019-05-22T12:53:58.106Z,100791
2019-05-22T12:56:27.575Z,100815
2019-05-22T12:58:56.433Z,100791
2019-05-22T13:01:25.286Z,100792
2019-05-22T13:03:54.118Z,100790
2019-05-22T13:06:22.960Z,100780
2019-05-22T13:08:52.634Z,100790
2019-05-22T13:11:21.435Z,100789
2019-05-22T13:13:50.319Z,100785
2019-05-22T13:16:19.113Z,100781
2019-05-22T13:18:47.945Z,100789
2019-05-22T13:21:16.784Z,100778
2019-05-22T13:23:45.672Z,100780
2019-05-22T13:26:14.485Z,100790
2019-05-22T13:28:43.397Z,100783
2019-05-22T13:31:12.247Z,100787
2019-05-22T13:33:41.133Z,100786
2019-05-22T13:36:19.463Z,100784
2019-05-22T13:38:48.312Z,100782
2019-05-22T13:41:17.240Z,100784
2019-05-22T13:43:46.021Z,100782
2019-05-22T13:46:14.885Z,100778
2019-05-22T13:48:43.733Z,100782
2019-05-22T13:51:13.332Z,100785
2019-05-22T13:53:42.904Z,100789
2019-05-22T13:56:11.816Z,100798
2019-05-22T13:58:40.598Z,100793
2019-05-22T14:01:09.472Z,100792
2019-05-22T14:03:38.338Z,100789
2019-05-22T14:06:07.196Z,100786
2019-05-22T14:08:36.040Z,100790
2019-05-22T14:11:04.903Z,100789
2019-05-22T14:13:34.468Z,100788
2019-05-22T14:16:03.400Z,100786
2019-05-22T14:18:32.250Z,100787
2019-05-22T14:21:01.137Z,100774
2019-05-22T14:23:30.740Z,100790
2019-05-22T14:25:59.597Z,100785
2019-05-22T14:28:28.421Z,100775
2019-05-22T14:30:57.280Z,100775
2019-05-22T14:33:28.193Z,100781
2019-05-22T14:35:55.956Z,100773
2019-05-22T14:38:24.752Z,100777
2019-05-22T14:42:30.819Z,100779
2019-05-22T14:44:59.662Z,100772
2019-05-22T14:47:29.278Z,100774
2019-05-22T14:49:58.129Z,100772
2019-05-22T14:52:26.966Z,100776
2019-05-22T14:54:55.821Z,100763
2019-05-22T14:57:24.681Z,100768
2019-05-22T14:59:53.509Z,100777
2019-05-22T15:02:22.399Z,100772
2019-05-22T15:04:52.047Z,100774
2019-05-22T15:07:21.611Z,100771
2019-05-22T15:09:51.219Z,100775
2019-05-22T15:12:20.844Z,100764
2019-05-22T15:14:50.414Z,100770
2019-05-22T15:17:31.706Z,100778
2019-05-22T15:19:48.114Z,100760
2019-05-22T15:22:17.699Z,100762
2019-05-22T15:24:46.575Z,100771
2019-05-22T15:27:15.423Z,100769
2019-05-22T15:29:44.265Z,100773
2019-05-22T15:32:13.098Z,100770
2019-05-22T15:34:41.963Z,100766
2019-05-22T15:37:11.541Z,100767
2019-05-22T15:39:40.383Z,100764
2019-05-22T15:42:09.347Z,100769
2019-05-22T15:44:38.165Z,100776
2019-05-22T15:47:07.082Z,100766
2019-05-22T15:49:35.943Z,100761
2019-05-22T15:52:04.790Z,100764
2019-05-22T15:54:34.438Z,100774
2019-05-22T15:57:03.376Z,100770
2019-05-22T15:59:32.913Z,100766
2019-05-22T16:02:02.534Z,100768
2019-05-22T16:04:31.387Z,100766
2019-05-22T16:07:00.259Z,100772
2019-05-22T16:09:29.145Z,100767
2019-05-22T16:11:58.705Z,100764
2019-05-22T16:14:28.196Z,100763
2019-05-22T16:16:57.015Z,100753
2019-05-22T16:19:26.615Z,100759
2019-05-22T16:21:55.448Z,100759
2019-05-22T16:24:24.293Z,100758
2019-05-22T16:26:53.153Z,100761
2019-05-22T16:29:22.018Z,100753
2019-05-22T16:31:50.855Z,100754
2019-05-22T16:34:19.711Z,100758
2019-05-22T16:36:48.557Z,100753
2019-05-22T16:39:17.415Z,100749
2019-05-22T16:41:46.461Z,100752
2019-05-22T16:44:15.160Z,100754
2019-05-22T16:46:44.017Z,100752
2019-05-22T16:49:12.857Z,100754
2019-05-22T16:51:41.700Z,100751
2019-05-22T16:54:10.562Z,100751
2019-05-22T16:56:39.433Z,100756
2019-05-22T16:59:08.309Z,100765
2019-05-22T17:01:56.860Z,100761
2019-05-22T17:04:06.043Z,100761
2019-05-22T17:06:35.630Z,100769
2019-05-22T17:09:04.570Z,100767
2019-05-22T17:11:33.327Z,100759
2019-05-22T17:14:02.254Z,100769
2019-05-22T17:16:31.814Z,100769
2019-05-22T17:19:00.658Z,100761
2019-05-22T17:21:29.502Z,100756
2019-05-22T17:23:58.384Z,100767
2019-05-22T17:26:27.207Z,100767
2019-05-22T17:28:56.069Z,100778
2019-05-22T17:31:25.652Z,100772
2019-05-22T17:33:54.539Z,100770
2019-05-22T17:36:23.391Z,100764
2019-05-22T17:38:52.233Z,100761
2019-05-22T17:41:21.103Z,100761
2019-05-22T17:43:49.958Z,100761
2019-05-22T17:46:18.810Z,100762
2019-05-22T17:48:48.418Z,100770
2019-05-22T17:51:17.294Z,100761
2019-05-22T17:53:46.108Z,100767
2019-05-22T17:56:14.968Z,100768
2019-05-22T17:58:43.834Z,100768
2019-05-22T18:01:12.680Z,100773
2019-05-22T18:03:41.776Z,100771
2019-05-22T18:06:10.591Z,100767
2019-05-22T18:08:39.418Z,100775
2019-05-22T18:11:09.006Z,100779
2019-05-22T18:13:38.766Z,100774
2019-05-22T18:16:07.678Z,100779
2019-05-22T18:18:36.590Z,100784
2019-05-22T18:21:05.428Z,100784
2019-05-22T18:23:35.015Z,100784
2019-05-22T18:26:03.864Z,100793
2019-05-22T18:28:32.709Z,100792
2019-05-22T18:31:01.560Z,100793
2019-05-22T18:33:30.405Z,100792
2019-05-22T18:35:59.255Z,100794
2019-05-22T18:38:28.122Z,100798
2019-05-22T18:40:56.957Z,100801
2019-05-22T18:43:26.544Z,100800
2019-05-22T18:45:55.409Z,100802
2019-05-22T18:48:24.258Z,100801
2019-05-22T18:50:53.117Z,100798
2019-05-22T18:53:21.975Z,100798
2019-05-22T18:55:50.817Z,100795
2019-05-22T18:58:19.737Z,100803
2019-05-22T19:00:48.620Z,100805
2019-05-22T19:03:17.400Z,100803
2019-05-22T19:05:46.232Z,100808
2019-05-22T19:08:15.156Z,100806
2019-05-22T19:10:43.906Z,100807
2019-05-22T19:13:14.700Z,100808
2019-05-22T19:15:42.325Z,100807
2019-05-22T19:18:11.267Z,100816
2019-05-22T19:20:40.089Z,100802
2019-05-22T19:23:08.944Z,100811
2019-05-22T19:25:37.796Z,100806
2019-05-22T19:28:07.386Z,100807
2019-05-22T19:30:36.219Z,100803
2019-05-22T19:33:05.075Z,100811
2019-05-22T19:35:34.665Z,100807
2019-05-22T19:38:03.544Z,100809
2019-05-22T19:40:32.367Z,100818
2019-05-22T19:43:02.026Z,100816
2019-05-22T19:45:31.296Z,100821
2019-05-22T19:48:00.469Z,100818
2019-05-22T19:50:30.125Z,100824
2019-05-22T19:53:15.794Z,100824
2019-05-22T19:55:28.486Z,100829
2019-05-22T19:57:57.390Z,100833
2019-05-22T20:00:26.955Z,100829
2019-05-22T20:02:55.812Z,100828
2019-05-22T20:05:24.663Z,100833
2019-05-22T20:07:53.539Z,100828
2019-05-22T20:10:23.122Z,100826
2019-05-22T20:12:51.972Z,100833
2019-05-22T20:15:20.827Z,100829
2019-05-22T20:17:50.463Z,100833
2019-05-22T20:20:20.008Z,100839
2019-05-22T20:22:48.855Z,100831
2019-05-22T20:25:17.708Z,100845
2019-05-22T20:27:46.556Z,100838
2019-05-22T20:30:15.408Z,100843
2019-05-22T20:32:44.260Z,100847
2019-05-22T20:35:13.112Z,100843
2019-05-22T20:37:41.960Z,100836
2019-05-22T20:40:11.607Z,100847
2019-05-22T20:42:40.436Z,100856
2019-05-22T20:45:09.254Z,100853
2019-05-22T20:47:38.387Z,100849
2019-05-22T20:50:07.738Z,100847
2019-05-22T20:52:37.327Z,100845
2019-05-22T20:55:06.179Z,100850
2019-05-22T20:57:35.169Z,100849
2019-05-22T21:00:04.802Z,100845
2019-05-22T21:02:33.655Z,100849
2019-05-22T21:05:02.506Z,100845
2019-05-22T21:07:32.108Z,100844
2019-05-22T21:10:00.975Z,100848
2019-05-22T21:12:29.830Z,100861
2019-05-22T21:14:58.693Z,100852
2019-05-22T21:17:28.276Z,100847
2019-05-22T21:19:57.147Z,100852
2019-05-22T21:22:26.116Z,100851
2019-05-22T21:24:55.655Z,100851
2019-05-22T21:27:24.498Z,100847
2019-05-22T21:29:53.344Z,100844
2019-05-22T21:32:22.194Z,100850
2019-05-22T21:34:51.101Z,100859
2019-05-22T21:37:20.622Z,100853
2019-05-22T21:39:50.104Z,100854
2019-05-22T21:42:18.978Z,100853
2019-05-22T21:44:47.828Z,100853
2019-05-22T21:47:17.435Z,100853
2019-05-22T21:49:46.276Z,100854
2019-05-22T21:52:15.102Z,100853
2019-05-22T21:54:44.688Z,100856
2019-05-22T21:57:13.555Z,100854
2019-05-22T21:59:42.408Z,100860
2019-05-22T22:02:11.991Z,100857
2019-05-22T22:04:40.836Z,100863
2019-05-22T22:07:09.675Z,100858
2019-05-22T22:09:38.566Z,100858
2019-05-22T22:12:08.176Z,100857
2019-05-22T22:14:37.014Z,100858
2019-05-22T22:17:05.871Z,100867
2019-05-22T22:19:34.708Z,100869
2019-05-22T22:22:03.541Z,100864
2019-05-22T22:24:33.132Z,100871
2019-05-22T22:27:02.717Z,100870
2019-05-22T22:29:31.553Z,100878
2019-05-22T22:32:00.412Z,100865
2019-05-22T22:34:30.851Z,100866
2019-05-22T22:36:59.681Z,100871
2019-05-22T22:39:28.515Z,100868
2019-05-22T22:41:57.344Z,100876
2019-05-22T22:44:26.191Z,100876
2019-05-22T22:46:55.767Z,100871
2019-05-22T22:49:24.622Z,100873
2019-05-22T22:51:54.197Z,100875
2019-05-22T22:54:23.044Z,100875
2019-05-22T22:56:51.878Z,100879
2019-05-22T22:59:20.720Z,100881
2019-05-22T23:01:49.552Z,100880
2019-05-22T23:04:18.389Z,100879
2019-05-22T23:06:47.232Z,100879
2019-05-22T23:09:16.070Z,100875
2019-05-22T23:11:44.907Z,100879
2019-05-22T23:14:13.745Z,100877
2019-05-22T23:16:42.574Z,100877
2019-05-22T23:21:52.659Z,100874
2019-05-22T23:24:22.265Z,100879
2019-05-22T23:26:51.083Z,100874
2019-05-22T23:29:19.925Z,100879
2019-05-22T23:31:48.774Z,100877
2019-05-22T23:34:17.621Z,100875
2019-05-22T23:36:46.453Z,100877
2019-05-22T23:39:16.030Z,100881
2019-05-22T23:41:45.609Z,100884
2019-05-22T23:44:14.466Z,100876
2019-05-22T23:46:43.301Z,100881
2019-05-22T23:49:12.905Z,100881
2019-05-22T23:51:41.736Z,100883
2019-05-22T23:54:10.562Z,100887
2019-05-22T23:56:39.407Z,100883
2019-05-22T23:59:08.261Z,100883
